Time;durP1;ratioP1;P1;durP2;ratioP2;P2;SDS_P1;SDS_P2;PMS_P1;PMS_P2;Temp;Humidity;BMP_temperature;BMP_pressure;BME280_temperature;BME280_humidity;BME280_pressure;Samples;Min_cycle;Max_cycle;Signal;HPM_P1;HPM_P2
2022/12/24 00:00:03;;;;;;;13.83;6.50;;;;;;;;;;5007201;28;20163;-54
2022/12/24 00:02:29;;;;;;;15.37;5.97;;;;;;;;;;4999154;28;20186;-54
2022/12/24 00:04:55;;;;;;;13.70;6.33;;;;;;;;;;5006810;28;20272;-53
2022/12/24 00:07:21;;;;;;;15.60;6.03;;;;;;;;;;5003541;28;20569;-55
2022/12/24 00:09:47;;;;;;;12.57;5.60;;;;;;;;;;5006124;28;20183;-54
2022/12/24 00:12:13;;;;;;;14.80;4.93;;;;;;;;;;5003755;28;20174;-54
2022/12/24 00:14:39;;;;;;;14.13;6.07;;;;;;;;;;5006232;28;20180;-54
2022/12/24 00:17:05;;;;;;;17.87;5.83;;;;;;;;;;4998011;28;20705;-55
2022/12/24 00:19:31;;;;;;;21.37;7.23;;;;;;;;;;5005497;28;20876;-55
2022/12/24 00:21:57;;;;;;;17.50;6.07;;;;;;;;;;5004007;28;20474;-54
2022/12/24 00:24:23;;;;;;;20.47;5.77;;;;;;;;;;5006168;28;20187;-54
2022/12/24 00:26:49;;;;;;;15.43;6.07;;;;;;;;;;5002391;28;20225;-55
2022/12/24 00:29:15;;;;;;;19.47;7.00;;;;;;;;;;4989662;28;20167;-56
2022/12/24 00:31:41;;;;;;;16.83;6.33;;;;;;;;;;4976685;28;20186;-56
2022/12/24 00:34:07;;;;;;;19.70;6.20;;;;;;;;;;5006488;28;20947;-53
2022/12/24 00:36:33;;;;;;;21.63;7.43;;;;;;;;;;5001551;28;20175;-54
2022/12/24 00:39:00;;;;;;;21.90;8.20;;;;;;;;;;5000112;28;20550;-53
2022/12/24 00:41:29;;;;;;;15.97;6.07;;;;;;;;;;5002930;28;20633;-54
2022/12/24 00:44:04;;;;;;;16.07;5.93;;;;;;;;;;5003970;28;20556;-53
2022/12/24 00:46:30;;;;;;;17.57;8.37;;;;;;;;;;5000154;28;20565;-54
2022/12/24 00:48:56;;;;;;;19.30;7.03;;;;;;;;;;4997002;28;20187;-55
2022/12/24 00:51:23;;;;;;;16.43;6.40;;;;;;;;;;4987411;28;20156;-55
2022/12/24 00:53:49;;;;;;;17.93;7.20;;;;;;;;;;5006703;28;20194;-54
2022/12/24 00:56:15;;;;;;;12.97;5.77;;;;;;;;;;5004445;28;20193;-54
2022/12/24 00:58:41;;;;;;;11.13;5.37;;;;;;;;;;5006062;28;20179;-53
2022/12/24 01:01:07;;;;;;;16.10;5.90;;;;;;;;;;5007158;28;20189;-56
2022/12/24 01:03:37;;;;;;;19.67;5.83;;;;;;;;;;4996119;28;20193;-54
2022/12/24 01:06:03;;;;;;;17.87;5.60;;;;;;;;;;4996709;28;20200;-55
2022/12/24 01:08:29;;;;;;;17.13;6.10;;;;;;;;;;4975848;28;20179;-53
2022/12/24 01:10:55;;;;;;;14.40;5.20;;;;;;;;;;5001880;28;20182;-54
2022/12/24 01:13:21;;;;;;;15.63;5.17;;;;;;;;;;5005955;28;20179;-54
2022/12/24 01:15:47;;;;;;;16.40;6.13;;;;;;;;;;4979262;28;20191;-54
2022/12/24 01:18:13;;;;;;;16.37;5.50;;;;;;;;;;5008263;28;20304;-54
2022/12/24 01:20:39;;;;;;;16.13;5.30;;;;;;;;;;5009344;28;20495;-55
2022/12/24 01:23:05;;;;;;;16.83;5.33;;;;;;;;;;4998289;28;20175;-54
2022/12/24 01:25:31;;;;;;;15.30;6.00;;;;;;;;;;5004424;28;20566;-54
2022/12/24 01:27:57;;;;;;;12.33;5.60;;;;;;;;;;4980037;28;20286;-55
2022/12/24 01:30:24;;;;;;;14.40;5.20;;;;;;;;;;5001369;28;21456;-55
2022/12/24 01:32:50;;;;;;;11.13;6.17;;;;;;;;;;5003512;28;20190;-53
2022/12/24 01:35:16;;;;;;;13.33;5.70;;;;;;;;;;5008981;28;20692;-53
2022/12/24 01:37:42;;;;;;;16.03;5.13;;;;;;;;;;5004475;28;20188;-53
2022/12/24 01:45:45;;;;;;;14.63;5.00;;;;;;;;;;5004946;28;20218;-53
2022/12/24 01:48:31;;;;;;;13.73;5.20;;;;;;;;;;4999908;28;20229;-55
2022/12/24 01:51:01;;;;;;;15.30;5.30;;;;;;;;;;4964053;28;20286;-53
2022/12/24 01:53:28;;;;;;;13.47;5.20;;;;;;;;;;5002351;28;20708;-52
2022/12/24 01:55:54;;;;;;;20.27;7.27;;;;;;;;;;5005185;28;20185;-53
2022/12/24 01:58:22;;;;;;;15.57;6.53;;;;;;;;;;5003187;28;20261;-55
2022/12/24 02:00:48;;;;;;;14.23;6.13;;;;;;;;;;4996596;28;20214;-53
2022/12/24 02:03:14;;;;;;;16.87;5.60;;;;;;;;;;5001165;28;20179;-55
2022/12/24 02:05:46;;;;;;;16.33;5.73;;;;;;;;;;4988243;28;22448;-54
2022/12/24 02:08:13;;;;;;;22.17;6.17;;;;;;;;;;4986082;28;20660;-54
2022/12/24 02:10:39;;;;;;;16.67;5.97;;;;;;;;;;4989353;28;20693;-55
2022/12/24 02:13:06;;;;;;;17.20;7.20;;;;;;;;;;4986384;28;20199;-55
2022/12/24 02:15:52;;;;;;;14.07;5.43;;;;;;;;;;4986425;28;20186;-54
2022/12/24 02:18:22;;;;;;;20.30;5.20;;;;;;;;;;4958047;28;20219;-54
2022/12/24 02:21:21;;;;;;;12.83;6.20;;;;;;;;;;4997086;28;20720;-53
2022/12/24 02:23:47;;;;;;;12.03;4.50;;;;;;;;;;4958224;28;20203;-54
2022/12/24 02:26:31;;;;;;;17.70;6.37;;;;;;;;;;5002383;28;20210;-53
2022/12/24 02:29:00;;;;;;;13.90;5.90;;;;;;;;;;5005614;28;20580;-53
2022/12/24 02:31:38;;;;;;;11.30;5.17;;;;;;;;;;4996029;28;20237;-54
2022/12/24 02:34:13;;;;;;;19.67;5.70;;;;;;;;;;5005114;28;20202;-53
2022/12/24 02:36:48;;;;;;;14.10;5.00;;;;;;;;;;4999469;28;20186;-54
2022/12/24 02:39:18;;;;;;;18.37;5.87;;;;;;;;;;4992435;28;20189;-54
2022/12/24 02:42:06;;;;;;;21.10;5.83;;;;;;;;;;4997457;28;20251;-54
2022/12/24 02:44:39;;;;;;;18.07;6.00;;;;;;;;;;5000798;28;20202;-54
2022/12/24 02:47:06;;;;;;;14.43;5.20;;;;;;;;;;4999283;28;20198;-53
2022/12/24 02:49:32;;;;;;;13.60;4.93;;;;;;;;;;5006207;28;20183;-53
2022/12/24 02:51:58;;;;;;;13.53;4.83;;;;;;;;;;5005268;28;20182;-53
2022/12/24 02:54:24;;;;;;;12.70;4.77;;;;;;;;;;5006260;28;20582;-53
2022/12/24 02:57:00;;;;;;;14.10;5.10;;;;;;;;;;5005631;28;20178;-53
2022/12/24 02:59:44;;;;;;;15.07;5.27;;;;;;;;;;5005878;28;20221;-53
2022/12/24 03:02:11;;;;;;;15.93;4.87;;;;;;;;;;5000691;28;20185;-53
2022/12/24 03:04:49;;;;;;;8.43;4.10;;;;;;;;;;4999491;28;20178;-53
2022/12/24 03:07:22;;;;;;;16.70;4.70;;;;;;;;;;5000468;28;20637;-53
2022/12/24 03:10:07;;;;;;;19.83;4.53;;;;;;;;;;5005639;28;20623;-53
2022/12/24 03:12:35;;;;;;;10.17;4.37;;;;;;;;;;4994208;28;20581;-53
2022/12/24 03:15:02;;;;;;;13.73;4.53;;;;;;;;;;4987931;28;20896;-54
2022/12/24 03:17:28;;;;;;;12.90;4.97;;;;;;;;;;4994944;28;20221;-53
2022/12/24 03:19:55;;;;;;;12.17;5.23;;;;;;;;;;4978113;28;20227;-54
2022/12/24 03:22:22;;;;;;;14.63;5.00;;;;;;;;;;4987961;28;20606;-53
2022/12/24 03:24:48;;;;;;;16.97;6.07;;;;;;;;;;5004282;28;20317;-53
2022/12/24 03:27:15;;;;;;;10.73;4.63;;;;;;;;;;5006617;28;20210;-53
2022/12/24 03:29:41;;;;;;;14.27;4.77;;;;;;;;;;5000537;28;20186;-53
2022/12/24 03:32:07;;;;;;;16.53;5.47;;;;;;;;;;4991792;28;20543;-54
2022/12/24 03:34:33;;;;;;;14.27;4.33;;;;;;;;;;5004365;28;20178;-54
2022/12/24 03:36:59;;;;;;;19.53;5.30;;;;;;;;;;4991906;28;20661;-53
2022/12/24 03:39:25;;;;;;;20.70;6.20;;;;;;;;;;5005271;28;20683;-53
2022/12/24 03:41:51;;;;;;;11.70;4.80;;;;;;;;;;5001797;28;20175;-53
2022/12/24 03:44:17;;;;;;;14.80;4.90;;;;;;;;;;5002895;28;20178;-53
2022/12/24 03:46:43;;;;;;;12.33;4.47;;;;;;;;;;5003080;28;20202;-53
2022/12/24 03:49:09;;;;;;;11.37;4.77;;;;;;;;;;5004824;28;20183;-54
2022/12/24 03:51:35;;;;;;;8.73;4.10;;;;;;;;;;5005347;28;20509;-53
2022/12/24 03:54:07;;;;;;;11.13;4.20;;;;;;;;;;5003284;28;20194;-53
2022/12/24 03:56:33;;;;;;;12.67;4.23;;;;;;;;;;5003189;28;20186;-54
2022/12/24 03:58:59;;;;;;;8.37;4.23;;;;;;;;;;5000715;28;20660;-54
2022/12/24 04:01:25;;;;;;;11.67;4.57;;;;;;;;;;5004912;28;20229;-53
2022/12/24 04:03:52;;;;;;;8.97;3.50;;;;;;;;;;5004601;28;20204;-53
2022/12/24 04:06:18;;;;;;;9.03;3.83;;;;;;;;;;5004326;28;20845;-53
2022/12/24 04:08:44;;;;;;;12.07;3.90;;;;;;;;;;4993569;28;20394;-53
2022/12/24 04:11:11;;;;;;;10.43;4.20;;;;;;;;;;4986523;28;20190;-54
2022/12/24 04:13:37;;;;;;;12.77;3.80;;;;;;;;;;5002045;28;20179;-53
2022/12/24 04:16:05;;;;;;;9.83;3.57;;;;;;;;;;5005064;28;20178;-54
2022/12/24 04:18:31;;;;;;;8.10;3.97;;;;;;;;;;5000259;28;20534;-53
2022/12/24 04:20:57;;;;;;;9.30;3.47;;;;;;;;;;5002562;28;20222;-53
2022/12/24 04:23:23;;;;;;;11.20;4.20;;;;;;;;;;4996654;28;20183;-54
2022/12/24 04:25:49;;;;;;;10.37;4.30;;;;;;;;;;4997322;28;20221;-54
2022/12/24 04:28:15;;;;;;;12.47;4.73;;;;;;;;;;5006153;28;20198;-53
2022/12/24 04:30:41;;;;;;;14.37;4.37;;;;;;;;;;5003177;28;20216;-53
2022/12/24 04:33:07;;;;;;;8.13;4.33;;;;;;;;;;5005926;28;20716;-55
2022/12/24 04:35:33;;;;;;;13.07;4.70;;;;;;;;;;5009544;28;20571;-54
2022/12/24 04:37:59;;;;;;;9.23;4.40;;;;;;;;;;4998720;28;20394;-54
2022/12/24 04:40:26;;;;;;;12.23;4.67;;;;;;;;;;4991188;28;20558;-54
2022/12/24 04:42:52;;;;;;;16.80;4.63;;;;;;;;;;4998177;28;20630;-53
2022/12/24 04:45:18;;;;;;;10.97;4.77;;;;;;;;;;4994152;28;20207;-54
2022/12/24 04:47:44;;;;;;;12.67;5.53;;;;;;;;;;5004324;28;20171;-53
2022/12/24 04:50:10;;;;;;;9.13;4.47;;;;;;;;;;5009097;28;20182;-54
2022/12/24 04:52:36;;;;;;;11.57;4.10;;;;;;;;;;5003902;28;20178;-53
2022/12/24 04:55:03;;;;;;;9.87;4.63;;;;;;;;;;5007671;28;20668;-53
2022/12/24 04:57:34;;;;;;;9.87;4.57;;;;;;;;;;4982572;28;20249;-54
2022/12/24 05:00:00;;;;;;;14.03;5.10;;;;;;;;;;4994921;28;20182;-54
2022/12/24 05:02:26;;;;;;;10.87;5.00;;;;;;;;;;5006058;28;20685;-55
2022/12/24 05:04:52;;;;;;;13.53;4.83;;;;;;;;;;5008462;28;20186;-53
2022/12/24 05:07:18;;;;;;;13.03;4.50;;;;;;;;;;5003566;28;20668;-53
2022/12/24 05:09:44;;;;;;;9.53;4.80;;;;;;;;;;5003681;28;20186;-54
2022/12/24 05:12:10;;;;;;;13.30;5.13;;;;;;;;;;5003925;28;20602;-54
2022/12/24 05:14:36;;;;;;;15.53;4.73;;;;;;;;;;4983223;28;20175;-53
2022/12/24 05:17:02;;;;;;;7.70;3.77;;;;;;;;;;5002158;28;20214;-53
2022/12/24 05:19:29;;;;;;;7.83;3.97;;;;;;;;;;5004473;28;20222;-54
2022/12/24 05:27:24;;;;;;;14.57;4.50;;;;;;;;;;5006585;28;20217;-54
2022/12/24 05:29:50;;;;;;;10.53;5.27;;;;;;;;;;4998948;28;20241;-55
2022/12/24 05:32:16;;;;;;;8.93;4.43;;;;;;;;;;5005263;28;20209;-53
2022/12/24 05:34:42;;;;;;;7.07;3.90;;;;;;;;;;5007114;28;20662;-53
2022/12/24 05:37:08;;;;;;;9.13;4.00;;;;;;;;;;5005136;28;20179;-54
2022/12/24 05:39:34;;;;;;;9.87;4.40;;;;;;;;;;4995251;28;20174;-53
2022/12/24 05:42:00;;;;;;;8.70;4.27;;;;;;;;;;5002522;28;20433;-56
2022/12/24 05:44:26;;;;;;;7.03;3.67;;;;;;;;;;5006901;28;20178;-54
2022/12/24 05:46:52;;;;;;;8.87;4.10;;;;;;;;;;5001499;28;20206;-53
2022/12/24 05:49:18;;;;;;;11.93;4.27;;;;;;;;;;5006175;28;20174;-53
2022/12/24 05:52:02;;;;;;;7.17;3.50;;;;;;;;;;5006458;28;20182;-54
2022/12/24 05:54:29;;;;;;;6.93;4.07;;;;;;;;;;5002494;28;20237;-53
2022/12/24 05:56:55;;;;;;;8.73;3.57;;;;;;;;;;5003676;28;20191;-54
2022/12/24 05:59:21;;;;;;;11.80;3.90;;;;;;;;;;5004228;28;20325;-54
2022/12/24 06:01:47;;;;;;;10.47;3.53;;;;;;;;;;5001805;28;20179;-54
2022/12/24 06:04:13;;;;;;;12.60;4.07;;;;;;;;;;5004288;28;20186;-53
2022/12/24 06:06:39;;;;;;;11.07;3.87;;;;;;;;;;5004081;28;20194;-53
2022/12/24 06:09:05;;;;;;;11.20;4.03;;;;;;;;;;5004273;28;20182;-54
2022/12/24 06:11:32;;;;;;;10.67;4.23;;;;;;;;;;5001092;28;20174;-53
2022/12/24 06:13:58;;;;;;;9.37;3.40;;;;;;;;;;5003154;28;20189;-54
2022/12/24 06:16:24;;;;;;;10.97;4.40;;;;;;;;;;5004659;28;20185;-54
2022/12/24 06:18:50;;;;;;;7.23;3.83;;;;;;;;;;5000774;28;20656;-54
2022/12/24 06:21:16;;;;;;;12.20;4.23;;;;;;;;;;4999492;28;20233;-53
2022/12/24 06:23:43;;;;;;;12.30;5.00;;;;;;;;;;5005324;28;20209;-53
2022/12/24 06:26:12;;;;;;;15.40;5.10;;;;;;;;;;5005151;28;20206;-54
2022/12/24 06:28:38;;;;;;;7.83;3.53;;;;;;;;;;5007289;28;20174;-53
2022/12/24 06:31:05;;;;;;;9.77;4.20;;;;;;;;;;5000384;28;20253;-53
2022/12/24 06:33:32;;;;;;;10.47;3.90;;;;;;;;;;5002679;28;20179;-53
2022/12/24 06:35:58;;;;;;;10.90;3.73;;;;;;;;;;5005893;28;20206;-54
2022/12/24 06:38:24;;;;;;;9.17;4.70;;;;;;;;;;4978557;28;20190;-54
2022/12/24 06:40:50;;;;;;;7.97;3.97;;;;;;;;;;5004004;28;20224;-53
2022/12/24 06:43:16;;;;;;;14.13;4.67;;;;;;;;;;5002090;28;20825;-53
2022/12/24 06:45:46;;;;;;;10.80;3.67;;;;;;;;;;5002802;28;20206;-54
2022/12/24 06:48:13;;;;;;;11.33;4.17;;;;;;;;;;4993848;28;20183;-55
2022/12/24 06:50:39;;;;;;;12.17;3.77;;;;;;;;;;4985422;28;20174;-56
2022/12/24 06:53:05;;;;;;;7.83;3.97;;;;;;;;;;5006153;28;20175;-55
2022/12/24 06:55:31;;;;;;;7.57;3.30;;;;;;;;;;5004259;28;20525;-56
2022/12/24 06:57:57;;;;;;;8.93;4.00;;;;;;;;;;5000730;28;20278;-55
2022/12/24 07:00:24;;;;;;;12.63;4.37;;;;;;;;;;5004509;28;20293;-55
2022/12/24 07:02:50;;;;;;;10.13;3.97;;;;;;;;;;4998256;28;20233;-55
2022/12/24 07:05:16;;;;;;;11.17;3.70;;;;;;;;;;4994530;28;20227;-55
2022/12/24 07:07:43;;;;;;;11.63;3.80;;;;;;;;;;4986479;28;20167;-55
2022/12/24 07:10:14;;;;;;;11.90;4.70;;;;;;;;;;4987967;28;20182;-55
2022/12/24 07:12:40;;;;;;;11.63;4.30;;;;;;;;;;4997450;28;20633;-55
2022/12/24 07:15:06;;;;;;;10.57;3.90;;;;;;;;;;4983053;28;20213;-55
2022/12/24 07:17:32;;;;;;;12.30;4.50;;;;;;;;;;5002383;28;20684;-55
2022/12/24 07:19:58;;;;;;;9.47;4.13;;;;;;;;;;5000894;28;20276;-55
2022/12/24 07:22:24;;;;;;;11.17;4.07;;;;;;;;;;5001678;28;20221;-55
2022/12/24 07:24:51;;;;;;;15.33;5.57;;;;;;;;;;5000012;28;20182;-55
2022/12/24 07:27:17;;;;;;;13.57;4.40;;;;;;;;;;4998162;28;20426;-55
2022/12/24 07:29:43;;;;;;;11.17;4.60;;;;;;;;;;4999877;28;20186;-55
2022/12/24 07:32:10;;;;;;;13.93;4.50;;;;;;;;;;4999660;28;20228;-55
2022/12/24 07:34:36;;;;;;;10.40;3.57;;;;;;;;;;5000667;28;20624;-55
2022/12/24 07:37:02;;;;;;;11.27;4.67;;;;;;;;;;4997521;28;20250;-55
2022/12/24 07:39:28;;;;;;;10.30;4.27;;;;;;;;;;4987232;28;20548;-55
2022/12/24 07:41:54;;;;;;;14.20;4.63;;;;;;;;;;5005448;28;20652;-55
2022/12/24 07:44:20;;;;;;;11.33;4.80;;;;;;;;;;5002682;28;20210;-55
2022/12/24 07:46:46;;;;;;;14.20;4.63;;;;;;;;;;4994284;28;20773;-55
2022/12/24 07:49:12;;;;;;;16.63;5.27;;;;;;;;;;5001455;28;20178;-55
2022/12/24 07:51:38;;;;;;;16.67;4.83;;;;;;;;;;5004810;28;20237;-55
2022/12/24 07:54:04;;;;;;;9.63;4.90;;;;;;;;;;5005641;28;20170;-55
2022/12/24 07:56:31;;;;;;;7.63;4.23;;;;;;;;;;4997774;28;20206;-55
2022/12/24 07:58:57;;;;;;;11.80;4.80;;;;;;;;;;4994821;28;20265;-56
2022/12/24 08:01:23;;;;;;;11.77;4.60;;;;;;;;;;4981428;28;20222;-55
2022/12/24 08:03:53;;;;;;;12.13;5.07;;;;;;;;;;4990619;28;20638;-55
2022/12/24 08:06:19;;;;;;;11.50;4.77;;;;;;;;;;4992140;28;20290;-55
2022/12/24 08:08:53;;;;;;;10.33;4.20;;;;;;;;;;5004281;28;20182;-55
2022/12/24 08:11:19;;;;;;;13.80;5.00;;;;;;;;;;4998113;28;20661;-55
2022/12/24 08:13:45;;;;;;;15.67;5.37;;;;;;;;;;4990639;28;20665;-55
2022/12/24 08:16:11;;;;;;;8.63;3.93;;;;;;;;;;5001214;28;20678;-55
2022/12/24 08:18:37;;;;;;;12.20;4.87;;;;;;;;;;4982524;28;20564;-55
2022/12/24 08:21:03;;;;;;;8.03;4.00;;;;;;;;;;5006284;28;20252;-55
2022/12/24 08:23:29;;;;;;;12.03;4.13;;;;;;;;;;5004799;28;20194;-55
2022/12/24 08:25:55;;;;;;;15.60;4.30;;;;;;;;;;5002970;28;20202;-55
2022/12/24 08:28:21;;;;;;;14.57;5.07;;;;;;;;;;5004305;28;20388;-55
2022/12/24 08:30:48;;;;;;;15.03;4.33;;;;;;;;;;5002200;28;20180;-55
2022/12/24 08:33:14;;;;;;;13.13;4.53;;;;;;;;;;5005079;28;20233;-55
2022/12/24 08:35:40;;;;;;;8.67;4.13;;;;;;;;;;5006160;28;20736;-55
2022/12/24 08:38:06;;;;;;;14.97;4.87;;;;;;;;;;5015790;28;20182;-55
2022/12/24 08:40:32;;;;;;;14.50;4.67;;;;;;;;;;5009135;28;20588;-55
2022/12/24 08:43:00;;;;;;;13.63;4.93;;;;;;;;;;5006114;28;20367;-55
2022/12/24 08:45:26;;;;;;;16.17;4.87;;;;;;;;;;5005896;28;20220;-55
2022/12/24 08:47:59;;;;;;;13.17;4.57;;;;;;;;;;5005254;28;20617;-55
2022/12/24 08:50:27;;;;;;;8.37;4.57;;;;;;;;;;5006068;28;20573;-55
2022/12/24 08:52:53;;;;;;;12.60;4.97;;;;;;;;;;5003213;28;20194;-55
2022/12/24 08:55:19;;;;;;;10.30;3.83;;;;;;;;;;5019791;28;20205;-55
2022/12/24 08:57:45;;;;;;;8.23;4.00;;;;;;;;;;5014386;28;20496;-55
2022/12/24 09:00:12;;;;;;;13.27;4.50;;;;;;;;;;5005494;28;20159;-55
2022/12/24 09:02:38;;;;;;;16.57;5.33;;;;;;;;;;5005504;28;20166;-55
2022/12/24 09:05:04;;;;;;;11.03;4.33;;;;;;;;;;5004101;28;20533;-55
2022/12/24 09:07:30;;;;;;;10.20;4.80;;;;;;;;;;5004414;28;20269;-55
2022/12/24 09:09:56;;;;;;;10.13;4.73;;;;;;;;;;5005319;28;20178;-55
2022/12/24 09:12:23;;;;;;;13.27;3.93;;;;;;;;;;5021169;28;20251;-55
2022/12/24 09:14:50;;;;;;;15.20;4.63;;;;;;;;;;5029187;28;20153;-55
2022/12/24 09:17:16;;;;;;;10.27;4.33;;;;;;;;;;5004420;28;20202;-55
2022/12/24 09:19:42;;;;;;;14.73;4.90;;;;;;;;;;4986283;28;20206;-55
2022/12/24 09:22:08;;;;;;;11.63;5.07;;;;;;;;;;4990437;28;20409;-55
2022/12/24 09:24:35;;;;;;;12.33;5.00;;;;;;;;;;4984597;28;20213;-55
2022/12/24 09:27:02;;;;;;;11.83;5.07;;;;;;;;;;5005408;28;20206;-55
2022/12/24 09:29:28;;;;;;;14.27;5.40;;;;;;;;;;5000163;28;20191;-55
2022/12/24 09:31:55;;;;;;;12.37;4.33;;;;;;;;;;5003944;28;20249;-55
2022/12/24 09:34:21;;;;;;;7.30;4.27;;;;;;;;;;5004854;28;20178;-55
2022/12/24 09:36:47;;;;;;;11.67;4.13;;;;;;;;;;5003328;28;20649;-55
2022/12/24 09:39:14;;;;;;;10.80;5.13;;;;;;;;;;5012482;28;20186;-55
2022/12/24 09:41:52;;;;;;;19.63;5.70;;;;;;;;;;5007713;28;20197;-55
2022/12/24 09:44:21;;;;;;;25.10;5.70;;;;;;;;;;5009851;28;20232;-55
2022/12/24 09:46:49;;;;;;;11.83;4.53;;;;;;;;;;5005442;28;20248;-56
2022/12/24 09:49:18;;;;;;;16.83;5.57;;;;;;;;;;5010812;28;20254;-55
2022/12/24 09:51:47;;;;;;;18.63;5.83;;;;;;;;;;5008222;28;20174;-55
2022/12/24 09:54:25;;;;;;;15.57;5.80;;;;;;;;;;5007253;28;20535;-55
2022/12/24 09:56:51;;;;;;;21.17;6.00;;;;;;;;;;5008757;28;20249;-55
2022/12/24 09:59:20;;;;;;;15.80;5.83;;;;;;;;;;4993106;28;20236;-55
2022/12/24 10:01:47;;;;;;;18.80;6.00;;;;;;;;;;5008981;28;20261;-55
2022/12/24 10:04:14;;;;;;;14.50;5.43;;;;;;;;;;5010844;28;20182;-54
2022/12/24 10:06:53;;;;;;;15.77;5.10;;;;;;;;;;5009096;28;20288;-54
2022/12/24 10:09:38;;;;;;;17.60;5.70;;;;;;;;;;5006736;28;20171;-55
2022/12/24 10:12:13;;;;;;;17.20;5.00;;;;;;;;;;5001267;28;20174;-54
2022/12/24 10:14:46;;;;;;;14.87;4.73;;;;;;;;;;5005854;28;20210;-54
2022/12/24 10:17:15;;;;;;;12.30;5.40;;;;;;;;;;5009938;28;20202;-54
2022/12/24 10:19:54;;;;;;;9.63;5.10;;;;;;;;;;5005805;28;20186;-54
2022/12/24 10:22:20;;;;;;;20.50;6.67;;;;;;;;;;4988035;28;20237;-54
2022/12/24 10:24:58;;;;;;;14.10;4.60;;;;;;;;;;4986895;28;20179;-54
2022/12/24 10:27:27;;;;;;;17.10;4.87;;;;;;;;;;4989284;28;20183;-54
2022/12/24 10:29:58;;;;;;;12.83;5.17;;;;;;;;;;4988349;28;20695;-54
2022/12/24 10:32:32;;;;;;;9.97;4.27;;;;;;;;;;4986940;28;20187;-54
2022/12/24 10:35:08;;;;;;;21.97;5.97;;;;;;;;;;4990894;28;20191;-54
2022/12/24 10:37:34;;;;;;;14.13;5.47;;;;;;;;;;4988266;28;20179;-54
2022/12/24 10:40:01;;;;;;;14.13;4.77;;;;;;;;;;4988017;28;20178;-54
2022/12/24 10:42:35;;;;;;;15.47;5.50;;;;;;;;;;4988179;28;20229;-54
2022/12/24 10:45:03;;;;;;;14.60;7.07;;;;;;;;;;4990324;28;20183;-54
2022/12/24 10:47:30;;;;;;;17.27;5.13;;;;;;;;;;4991215;28;20634;-54
2022/12/24 10:50:02;;;;;;;18.03;6.90;;;;;;;;;;4989068;28;20183;-56
2022/12/24 10:52:30;;;;;;;11.23;5.33;;;;;;;;;;4988578;28;20187;-55
2022/12/24 10:55:06;;;;;;;18.20;5.20;;;;;;;;;;4999191;28;20237;-55
2022/12/24 10:57:32;;;;;;;18.90;5.83;;;;;;;;;;4984510;28;20535;-55
2022/12/24 10:59:58;;;;;;;33.27;9.30;;;;;;;;;;4980767;28;20202;-54
2022/12/24 11:02:27;;;;;;;31.00;10.10;;;;;;;;;;4974854;28;20238;-54
2022/12/24 11:04:54;;;;;;;21.73;8.03;;;;;;;;;;4986163;28;20307;-55
2022/12/24 11:07:21;;;;;;;34.27;8.80;;;;;;;;;;4978772;28;20662;-54
2022/12/24 11:10:04;;;;;;;19.63;7.07;;;;;;;;;;4988913;28;20618;-53
2022/12/24 11:12:45;;;;;;;25.23;8.00;;;;;;;;;;4990735;28;20258;-54
2022/12/24 11:15:30;;;;;;;21.97;9.17;;;;;;;;;;4988818;28;20654;-55
2022/12/24 11:17:59;;;;;;;31.43;11.50;;;;;;;;;;4984832;28;20202;-54
2022/12/24 11:20:27;;;;;;;27.33;13.87;;;;;;;;;;4996543;28;20233;-53
2022/12/24 11:22:53;;;;;;;29.93;16.13;;;;;;;;;;5008581;28;20536;-54
2022/12/24 11:25:21;;;;;;;34.53;17.93;;;;;;;;;;5010719;28;20194;-53
2022/12/24 11:27:50;;;;;;;34.63;17.87;;;;;;;;;;5001974;28;20644;-54
2022/12/24 11:30:16;;;;;;;38.83;22.97;;;;;;;;;;5008022;28;20178;-54
2022/12/24 11:32:43;;;;;;;26.87;16.50;;;;;;;;;;5005373;28;20170;-54
2022/12/24 11:35:20;;;;;;;25.70;18.63;;;;;;;;;;4995184;28;20183;-54
2022/12/24 11:37:47;;;;;;;33.20;16.77;;;;;;;;;;5007007;28;20664;-54
2022/12/24 11:40:21;;;;;;;31.40;15.97;;;;;;;;;;5007865;28;20178;-54
2022/12/24 11:42:52;;;;;;;23.87;12.20;;;;;;;;;;5004438;28;20175;-54
2022/12/24 11:45:23;;;;;;;26.63;11.83;;;;;;;;;;5006923;28;20284;-53
2022/12/24 11:47:50;;;;;;;30.93;10.97;;;;;;;;;;5006411;28;20179;-53
2022/12/24 11:50:30;;;;;;;22.53;8.37;;;;;;;;;;5009113;28;20251;-54
2022/12/24 11:52:56;;;;;;;20.60;8.83;;;;;;;;;;4989932;28;20174;-54
2022/12/24 11:55:28;;;;;;;26.10;7.57;;;;;;;;;;5008080;28;20641;-54
2022/12/24 11:58:04;;;;;;;22.57;7.57;;;;;;;;;;5001680;28;20182;-54
2022/12/24 12:00:30;;;;;;;22.53;7.73;;;;;;;;;;5010007;28;20510;-53
2022/12/24 12:02:58;;;;;;;22.90;6.50;;;;;;;;;;5015428;28;20174;-53
2022/12/24 12:05:30;;;;;;;24.70;7.43;;;;;;;;;;5008787;28;20210;-53
2022/12/24 12:08:00;;;;;;;17.83;7.37;;;;;;;;;;5004507;28;20189;-54
2022/12/24 12:10:31;;;;;;;18.37;6.77;;;;;;;;;;5009510;28;20772;-53
2022/12/24 12:13:02;;;;;;;12.67;5.70;;;;;;;;;;5007736;28;20182;-54
2022/12/24 12:15:33;;;;;;;18.70;6.37;;;;;;;;;;5009775;28;20244;-54
2022/12/24 12:18:07;;;;;;;13.23;5.23;;;;;;;;;;4992191;28;20213;-53
2022/12/24 12:20:42;;;;;;;9.70;5.33;;;;;;;;;;5008945;28;20700;-53
2022/12/24 12:23:27;;;;;;;22.50;5.80;;;;;;;;;;5007369;28;20709;-54
2022/12/24 12:25:55;;;;;;;16.17;5.70;;;;;;;;;;5008308;28;20194;-53
2022/12/24 12:28:27;;;;;;;15.57;6.07;;;;;;;;;;5009246;28;20182;-53
2022/12/24 12:31:19;;;;;;;20.47;5.73;;;;;;;;;;4992047;28;20217;-54
2022/12/24 12:33:51;;;;;;;18.77;6.57;;;;;;;;;;4968255;28;20587;-53
2022/12/24 12:36:20;;;;;;;18.83;6.40;;;;;;;;;;5014644;28;20221;-54
2022/12/24 12:38:47;;;;;;;12.70;5.63;;;;;;;;;;5005843;28;20214;-53
2022/12/24 12:41:27;;;;;;;13.63;5.80;;;;;;;;;;5006919;28;20617;-53
2022/12/24 12:44:12;;;;;;;13.77;4.90;;;;;;;;;;5001925;28;20182;-54
2022/12/24 12:46:50;;;;;;;16.77;5.50;;;;;;;;;;5006644;28;20592;-53
2022/12/24 12:49:31;;;;;;;18.20;5.73;;;;;;;;;;5008594;28;20208;-53
2022/12/24 12:52:08;;;;;;;13.17;5.30;;;;;;;;;;5013635;28;20641;-54
2022/12/24 12:54:40;;;;;;;13.03;4.97;;;;;;;;;;5013796;28;20171;-53
2022/12/24 12:57:08;;;;;;;14.60;5.57;;;;;;;;;;5008029;28;20190;-53
2022/12/24 12:59:52;;;;;;;18.73;7.00;;;;;;;;;;5007343;28;20240;-54
2022/12/24 13:02:18;;;;;;;16.70;7.20;;;;;;;;;;4979393;28;20177;-53
2022/12/24 13:04:47;;;;;;;17.20;4.70;;;;;;;;;;5004718;28;20179;-53
2022/12/24 13:07:16;;;;;;;16.20;6.43;;;;;;;;;;5010026;28;20248;-53
2022/12/24 13:10:01;;;;;;;15.13;5.73;;;;;;;;;;5002223;28;20175;-53
2022/12/24 13:12:27;;;;;;;14.03;5.93;;;;;;;;;;5001226;28;20185;-53
2022/12/24 13:15:12;;;;;;;12.30;4.93;;;;;;;;;;4994142;28;20183;-53
2022/12/24 13:17:38;;;;;;;22.93;6.47;;;;;;;;;;5003910;28;20691;-53
2022/12/24 13:20:10;;;;;;;15.30;5.60;;;;;;;;;;4996318;28;20186;-53
2022/12/24 13:22:36;;;;;;;11.23;4.93;;;;;;;;;;4987035;28;20211;-53
2022/12/24 13:25:03;;;;;;;15.00;5.23;;;;;;;;;;5007307;28;20214;-53
2022/12/24 13:27:33;;;;;;;18.00;6.67;;;;;;;;;;5007215;28;20184;-53
2022/12/24 13:30:05;;;;;;;14.83;6.57;;;;;;;;;;5000906;28;20193;-53
2022/12/24 13:32:37;;;;;;;16.47;5.67;;;;;;;;;;5006662;28;20201;-53
2022/12/24 13:35:23;;;;;;;11.40;5.07;;;;;;;;;;4996025;28;20202;-53
2022/12/24 13:37:49;;;;;;;12.73;5.57;;;;;;;;;;4997740;28;20178;-53
2022/12/24 13:40:15;;;;;;;15.63;5.57;;;;;;;;;;5006735;28;20179;-53
2022/12/24 13:42:49;;;;;;;13.07;4.90;;;;;;;;;;4979524;28;20186;-52
2022/12/24 13:45:30;;;;;;;16.80;5.30;;;;;;;;;;5007840;28;20245;-52
2022/12/24 13:48:06;;;;;;;17.90;6.20;;;;;;;;;;5007504;28;20186;-53
2022/12/24 13:50:38;;;;;;;17.40;6.50;;;;;;;;;;4997556;28;20197;-53
2022/12/24 13:53:05;;;;;;;15.13;5.53;;;;;;;;;;5010027;28;20573;-53
2022/12/24 13:55:31;;;;;;;14.77;6.67;;;;;;;;;;5003863;28;20641;-53
2022/12/24 13:58:05;;;;;;;10.83;4.70;;;;;;;;;;5005546;28;20637;-53
2022/12/24 14:00:32;;;;;;;9.10;4.83;;;;;;;;;;5003041;28;20182;-53
2022/12/24 14:03:14;;;;;;;15.93;5.30;;;;;;;;;;5008064;28;20182;-53
2022/12/24 14:05:46;;;;;;;14.40;5.47;;;;;;;;;;5006315;28;20236;-53
2022/12/24 14:08:14;;;;;;;15.13;4.90;;;;;;;;;;5002392;28;20648;-53
2022/12/24 14:10:43;;;;;;;11.50;4.77;;;;;;;;;;5001772;28;20252;-53
2022/12/24 14:13:32;;;;;;;10.03;4.27;;;;;;;;;;5009879;28;20177;-53
2022/12/24 14:16:01;;;;;;;9.30;4.50;;;;;;;;;;4963617;28;20549;-53
2022/12/24 14:18:28;;;;;;;12.70;4.20;;;;;;;;;;5010106;28;20305;-53
2022/12/24 14:20:56;;;;;;;9.30;5.20;;;;;;;;;;5009010;28;20700;-52
2022/12/24 14:23:32;;;;;;;11.33;4.50;;;;;;;;;;5010553;28;20198;-53
2022/12/24 14:26:00;;;;;;;18.80;5.60;;;;;;;;;;5011527;28;20236;-53
2022/12/24 14:28:29;;;;;;;16.17;5.63;;;;;;;;;;5005825;28;20178;-54
2022/12/24 14:31:00;;;;;;;10.70;5.43;;;;;;;;;;4997384;28;20175;-53
2022/12/24 14:33:33;;;;;;;11.57;4.97;;;;;;;;;;4985495;28;20214;-52
2022/12/24 14:36:00;;;;;;;11.03;4.63;;;;;;;;;;5008821;28;20175;-53
2022/12/24 14:38:26;;;;;;;9.67;4.53;;;;;;;;;;5008343;28;20708;-53
2022/12/24 14:41:11;;;;;;;12.03;4.47;;;;;;;;;;4996989;28;20226;-52
2022/12/24 14:43:47;;;;;;;12.07;4.63;;;;;;;;;;5008912;28;20685;-52
2022/12/24 14:46:27;;;;;;;12.23;4.37;;;;;;;;;;5005461;28;20198;-53
2022/12/24 14:49:03;;;;;;;11.17;4.87;;;;;;;;;;5004177;28;20178;-53
2022/12/24 14:51:35;;;;;;;11.10;4.63;;;;;;;;;;5000844;28;20703;-53